createdAt,value
2019-06-07T00:00:40.343Z,2.42
2019-06-07T00:03:10.623Z,2.47
2019-06-07T00:05:38.393Z,2.30
2019-06-07T00:08:11.070Z,2.47
2019-06-07T00:10:37.271Z,2.50
2019-06-07T00:13:06.891Z,2.67
2019-06-07T00:15:35.342Z,2.30
2019-06-07T00:18:03.640Z,2.70
2019-06-07T00:20:31.876Z,2.87
2019-06-07T00:23:00.152Z,2.70
2019-06-07T00:25:28.367Z,2.12
2019-06-07T00:27:56.587Z,2.47
2019-06-07T00:30:50.853Z,2.70
2019-06-07T00:32:54.742Z,2.10
2019-06-07T00:35:22.975Z,1.72
2019-06-07T00:37:51.220Z,2.20
2019-06-07T00:40:30.007Z,2.30
2019-06-07T00:42:49.392Z,2.15
2019-06-07T00:45:18.994Z,3.33
2019-06-07T00:47:47.755Z,3.87
2019-06-07T00:50:17.022Z,3.40
2019-06-07T00:55:17.642Z,3.22
2019-06-07T00:57:45.864Z,3.10
2019-06-07T01:00:14.949Z,3.05
2019-06-07T01:02:44.031Z,3.30
2019-06-07T01:05:15.925Z,3.70
2019-06-07T01:07:42.196Z,3.92
2019-06-07T01:10:13.820Z,3.42
2019-06-07T01:12:42.866Z,3.10
2019-06-07T01:15:11.074Z,3.70
2019-06-07T01:17:59.865Z,3.30
2019-06-07T01:20:09.458Z,3.15
2019-06-07T01:22:37.720Z,3.50
2019-06-07T01:25:06.886Z,3.58
2019-06-07T01:27:35.098Z,3.50
2019-06-07T01:30:06.703Z,3.70
2019-06-07T01:32:34.917Z,3.20
2019-06-07T01:35:04.098Z,3.37
2019-06-07T01:37:32.317Z,4.20
2019-06-07T01:40:00.585Z,4.65
2019-06-07T01:42:30.536Z,4.12
2019-06-07T01:44:58.754Z,5.08
2019-06-07T01:47:29.339Z,4.70
2019-06-07T01:49:56.943Z,5.08
2019-06-07T01:52:26.659Z,4.40
2019-06-07T01:54:58.322Z,5.47
2019-06-07T01:57:38.332Z,4.70
2019-06-07T01:59:55.023Z,4.15
2019-06-07T02:02:25.856Z,5.35
2019-06-07T02:04:53.461Z,6.42
2019-06-07T02:07:25.800Z,5.30
2019-06-07T02:09:51.613Z,6.17
2019-06-07T02:12:28.124Z,6.58
2019-06-07T02:14:49.844Z,5.33
2019-06-07T02:17:20.103Z,5.53
2019-06-07T02:19:47.988Z,5.75
2019-06-07T02:22:16.194Z,5.05
2019-06-07T02:24:44.459Z,5.58
2019-06-07T02:27:12.718Z,5.50
2019-06-07T02:29:40.942Z,5.17
2019-06-07T02:32:09.172Z,5.30
2019-06-07T02:34:39.524Z,5.22
2019-06-07T02:37:07.327Z,5.28
2019-06-07T02:39:40.071Z,5.05
2019-06-07T02:42:05.538Z,5.30
2019-06-07T02:44:39.017Z,5.42
2019-06-07T02:47:03.787Z,5.78
2019-06-07T02:49:36.982Z,5.20
2019-06-07T02:52:01.959Z,5.08
2019-06-07T02:54:36.095Z,5.03
2019-06-07T02:57:00.134Z,5.10
2019-06-07T02:59:56.781Z,5.33
2019-06-07T03:01:58.297Z,4.97
2019-06-07T03:04:28.921Z,5.35
2019-06-07T03:06:57.208Z,5.60
2019-06-07T03:09:26.304Z,5.20
2019-06-07T03:11:54.746Z,5.80
2019-06-07T03:14:24.615Z,5.50
2019-06-07T03:17:00.214Z,5.50
2019-06-07T03:19:37.332Z,5.55
2019-06-07T03:22:04.197Z,5.95
2019-06-07T03:24:33.700Z,5.22
2019-06-07T03:29:34.511Z,4.75
2019-06-07T03:32:02.377Z,4.95
2019-06-07T03:34:38.116Z,5.08
2019-06-07T03:37:00.536Z,5.22
2019-06-07T03:39:29.588Z,5.42
2019-06-07T03:42:06.308Z,5.17
2019-06-07T03:44:32.373Z,4.65
2019-06-07T03:46:58.582Z,4.35
2019-06-07T03:49:28.039Z,4.20
2019-06-07T03:51:56.839Z,4.67
2019-06-07T03:54:25.643Z,4.17
2019-06-07T03:56:55.846Z,4.35
2019-06-07T03:59:24.053Z,5.17
2019-06-07T04:01:52.274Z,5.40
2019-06-07T04:04:20.487Z,5.37
2019-06-07T04:06:48.698Z,5.90
2019-06-07T04:09:16.925Z,5.75
2019-06-07T04:11:45.310Z,5.90
2019-06-07T04:14:13.541Z,5.92
2019-06-07T04:16:44.811Z,6.17
2019-06-07T04:19:11.703Z,5.65
2019-06-07T04:21:42.832Z,6.42
2019-06-07T04:24:09.861Z,5.75
2019-06-07T04:26:43.149Z,5.37
2019-06-07T04:29:32.175Z,5.80
2019-06-07T04:31:39.901Z,6.30
2019-06-07T04:34:07.929Z,5.60
2019-06-07T04:36:46.096Z,5.97
2019-06-07T04:39:07.507Z,6.20
2019-06-07T04:41:38.521Z,6.17
2019-06-07T04:44:06.807Z,6.40
2019-06-07T04:46:39.036Z,6.30
2019-06-07T04:49:05.505Z,5.50
2019-06-07T04:51:36.078Z,6.10
2019-06-07T04:54:03.660Z,6.20
2019-06-07T04:56:33.781Z,6.03
2019-06-07T04:59:01.841Z,5.97
2019-06-07T05:01:31.124Z,6.00
2019-06-07T05:04:00.030Z,6.67
2019-06-07T05:06:29.932Z,5.95
2019-06-07T05:08:58.198Z,6.42
2019-06-07T05:11:26.414Z,5.70
2019-06-07T05:13:54.641Z,6.05
2019-06-07T05:16:22.890Z,5.92
2019-06-07T05:18:51.102Z,5.30
2019-06-07T05:21:19.335Z,5.87
2019-06-07T05:24:09.779Z,5.12
2019-06-07T05:26:17.500Z,5.42
2019-06-07T05:28:45.718Z,5.55
2019-06-07T05:31:13.938Z,6.25
2019-06-07T05:33:43.573Z,5.50
2019-06-07T05:36:12.061Z,6.33
2019-06-07T05:38:42.604Z,6.08
2019-06-07T05:41:10.219Z,5.92
2019-06-07T05:43:44.106Z,6.17
2019-06-07T05:46:08.427Z,7.15
2019-06-07T05:48:40.316Z,7.17
2019-06-07T05:51:06.967Z,6.60
2019-06-07T05:53:38.488Z,7.12
2019-06-07T05:56:05.345Z,6.90
2019-06-07T05:58:35.050Z,6.87
2019-06-07T06:01:41.646Z,8.93
2019-06-07T06:03:35.062Z,6.47
2019-06-07T06:06:03.576Z,6.22
2019-06-07T06:08:32.174Z,8.18
2019-06-07T06:11:00.969Z,7.72
2019-06-07T06:13:29.285Z,6.78
2019-06-07T06:16:02.124Z,7.35
2019-06-07T06:18:29.789Z,7.83
2019-06-07T06:21:16.182Z,6.37
2019-06-07T06:23:28.079Z,5.78
2019-06-07T06:25:57.941Z,8.25
2019-06-07T06:28:27.336Z,6.40
2019-06-07T06:30:55.737Z,6.22
2019-06-07T06:33:33.427Z,6.15
2019-06-07T06:35:53.918Z,7.00
2019-06-07T06:38:23.124Z,6.12
2019-06-07T06:41:05.274Z,6.33
2019-06-07T06:43:21.488Z,6.55
2019-06-07T06:45:52.661Z,6.85
2019-06-07T06:48:21.472Z,6.22
2019-06-07T06:50:52.357Z,6.33
2019-06-07T06:53:19.789Z,5.97
2019-06-07T06:55:49.925Z,5.62
2019-06-07T06:58:17.967Z,6.22
2019-06-07T07:00:58.776Z,6.47
2019-06-07T07:03:54.177Z,7.03
2019-06-07T07:05:54.610Z,6.67
2019-06-07T07:08:21.190Z,6.05
2019-06-07T07:10:52.657Z,5.65
2019-06-07T07:13:19.390Z,5.50
2019-06-07T07:15:51.057Z,6.15
2019-06-07T07:18:17.562Z,7.45
2019-06-07T07:20:47.654Z,5.15
2019-06-07T07:23:17.385Z,5.47
2019-06-07T07:25:51.066Z,9.60
2019-06-07T07:28:15.799Z,5.55
2019-06-07T07:30:47.296Z,6.15
2019-06-07T07:33:16.222Z,4.65
2019-06-07T07:36:14.065Z,6.20
2019-06-07T07:38:17.539Z,6.95
2019-06-07T07:41:02.277Z,4.37
2019-06-07T07:43:15.827Z,4.15
2019-06-07T07:45:46.756Z,4.75
2019-06-07T07:48:18.556Z,4.83
2019-06-07T07:50:49.690Z,5.90
2019-06-07T07:53:18.399Z,5.25
2019-06-07T07:55:53.835Z,4.72
2019-06-07T07:58:20.068Z,5.22
2019-06-07T08:00:53.921Z,6.37
2019-06-07T08:03:18.298Z,5.20
2019-06-07T08:05:47.122Z,4.67
2019-06-07T08:08:16.829Z,4.28
2019-06-07T08:10:45.111Z,4.12
2019-06-07T08:13:24.794Z,4.00
2019-06-07T08:15:43.731Z,4.50
2019-06-07T08:18:12.050Z,5.28
2019-06-07T08:21:01.445Z,3.90
2019-06-07T08:23:10.227Z,5.05
2019-06-07T08:25:38.473Z,3.90
2019-06-07T08:28:06.780Z,4.50
2019-06-07T08:30:49.953Z,4.60
2019-06-07T08:33:24.574Z,4.08
2019-06-07T08:38:24.830Z,4.28
2019-06-07T08:40:37.974Z,4.55
2019-06-07T08:43:18.283Z,3.60
2019-06-07T08:45:36.321Z,5.10
2019-06-07T08:48:18.208Z,5.03
2019-06-07T08:50:34.924Z,4.55
2019-06-07T08:53:11.801Z,6.97
2019-06-07T08:55:33.850Z,4.33
2019-06-07T08:58:08.077Z,4.45
2019-06-07T09:00:48.108Z,4.30
2019-06-07T09:03:05.047Z,4.20
2019-06-07T09:05:32.029Z,4.95
2019-06-07T09:08:23.867Z,4.65
2019-06-07T09:10:30.194Z,4.60
2019-06-07T09:13:03.149Z,5.60
2019-06-07T09:15:28.409Z,5.00
2019-06-07T09:18:34.827Z,4.25
2019-06-07T09:20:41.882Z,4.28
2019-06-07T09:23:16.825Z,4.53
2019-06-07T09:25:56.565Z,4.80
2019-06-07T09:28:18.772Z,4.28
2019-06-07T09:30:43.668Z,4.60
2019-06-07T09:33:17.994Z,4.25
2019-06-07T09:35:46.290Z,4.00
2019-06-07T09:38:25.096Z,4.78
2019-06-07T09:40:44.486Z,4.72
2019-06-07T09:44:00.084Z,5.92
2019-06-07T09:45:42.954Z,4.53
2019-06-07T09:48:16.061Z,4.50
2019-06-07T09:50:41.185Z,4.92
2019-06-07T09:53:21.894Z,4.85
2019-06-07T09:55:40.918Z,4.50
2019-06-07T09:58:49.746Z,4.62
2019-06-07T10:00:41.979Z,4.33
2019-06-07T10:03:20.484Z,4.75
2019-06-07T10:05:39.038Z,3.60
2019-06-07T10:08:25.776Z,5.92
2019-06-07T10:10:37.263Z,4.17
2019-06-07T10:13:06.601Z,4.97
2019-06-07T10:15:36.168Z,4.17
2019-06-07T10:18:04.896Z,3.90
2019-06-07T10:20:33.235Z,4.28
2019-06-07T10:23:01.738Z,4.08
2019-06-07T10:25:30.243Z,3.40
2019-06-07T10:27:59.968Z,4.65
2019-06-07T10:30:28.364Z,4.10
2019-06-07T10:32:56.874Z,3.45
2019-06-07T10:35:25.099Z,3.22
2019-06-07T10:37:53.310Z,3.05
2019-06-07T10:40:21.527Z,2.95
2019-06-07T10:42:49.828Z,3.92
2019-06-07T10:45:18.045Z,4.17
2019-06-07T10:47:46.295Z,3.30
2019-06-07T10:50:14.663Z,4.15
2019-06-07T10:52:42.948Z,3.80
2019-06-07T10:55:12.646Z,4.87
2019-06-07T10:57:41.095Z,3.75
2019-06-07T11:00:11.499Z,3.95
2019-06-07T11:02:39.975Z,4.40
2019-06-07T11:05:10.083Z,3.37
2019-06-07T11:07:38.503Z,4.55
2019-06-07T11:10:13.388Z,6.70
2019-06-07T11:12:37.040Z,3.17
2019-06-07T11:15:06.665Z,3.60
2019-06-07T11:17:35.142Z,3.47
2019-06-07T11:20:08.345Z,3.75
2019-06-07T11:22:36.626Z,3.70
2019-06-07T11:25:06.892Z,3.27
2019-06-07T11:27:35.290Z,3.60
2019-06-07T11:30:06.234Z,3.58
2019-06-07T11:32:34.567Z,3.65
2019-06-07T11:35:04.800Z,4.05
2019-06-07T11:37:33.040Z,3.40
2019-06-07T11:40:01.274Z,2.95
2019-06-07T11:42:29.657Z,3.22
2019-06-07T11:44:57.915Z,4.15
2019-06-07T11:47:26.128Z,3.60
2019-06-07T11:49:54.636Z,4.28
2019-06-07T11:52:22.843Z,3.55
2019-06-07T11:54:51.073Z,3.30
2019-06-07T11:57:19.288Z,3.40
2019-06-07T11:59:47.523Z,3.30
2019-06-07T12:02:15.741Z,3.47
2019-06-07T12:04:43.963Z,3.35
2019-06-07T12:07:13.834Z,3.17
2019-06-07T12:09:55.499Z,3.22
2019-06-07T12:12:12.614Z,3.17
2019-06-07T12:14:40.924Z,2.98
2019-06-07T12:17:09.167Z,2.95
2019-06-07T12:19:37.407Z,2.80
2019-06-07T12:22:05.644Z,2.70
2019-06-07T12:24:38.504Z,3.98
2019-06-07T12:27:06.857Z,2.95
2019-06-07T12:29:35.070Z,2.95
2019-06-07T12:32:03.393Z,3.05
2019-06-07T12:34:31.669Z,3.20
2019-06-07T12:36:59.977Z,2.98
2019-06-07T12:39:28.330Z,3.37
2019-06-07T12:41:56.654Z,3.00
2019-06-07T12:44:24.878Z,2.58
2019-06-07T12:46:53.177Z,2.90
2019-06-07T12:49:21.400Z,3.15
2019-06-07T12:51:49.621Z,2.98
2019-06-07T12:54:17.852Z,2.90
2019-06-07T12:56:46.106Z,2.67
2019-06-07T12:59:14.417Z,3.22
2019-06-07T13:01:42.706Z,2.87
2019-06-07T13:04:10.926Z,3.30
2019-06-07T13:06:39.211Z,3.40
2019-06-07T13:09:11.174Z,3.37
2019-06-07T13:11:39.390Z,3.17
2019-06-07T13:14:07.626Z,3.47
2019-06-07T13:16:35.837Z,2.72
2019-06-07T13:19:04.076Z,3.15
2019-06-07T13:21:32.303Z,3.15
2019-06-07T13:24:00.566Z,2.92
2019-06-07T13:26:28.780Z,2.70
2019-06-07T13:28:57.007Z,2.65
2019-06-07T13:31:25.337Z,3.22
2019-06-07T13:33:53.525Z,2.72
2019-06-07T13:36:22.373Z,3.40
2019-06-07T13:38:50.749Z,2.77
2019-06-07T13:41:32.542Z,2.77
2019-06-07T13:43:51.442Z,3.52
2019-06-07T13:46:19.029Z,2.50
2019-06-07T13:48:47.405Z,3.30
2019-06-07T13:51:15.646Z,3.05
2019-06-07T13:53:43.878Z,3.15
2019-06-07T13:56:12.110Z,3.22
2019-06-07T13:58:40.361Z,3.30
2019-06-07T14:01:08.583Z,3.42
2019-06-07T14:03:36.860Z,3.33
2019-06-07T14:06:05.137Z,2.87
2019-06-07T14:08:33.423Z,2.95
2019-06-07T14:11:01.647Z,3.30
2019-06-07T14:13:30.401Z,3.17
2019-06-07T14:15:58.776Z,3.25
2019-06-07T14:18:28.636Z,3.25
2019-06-07T14:20:58.997Z,2.95
2019-06-07T14:23:43.757Z,2.90
2019-06-07T14:25:57.037Z,3.22
2019-06-07T14:28:28.536Z,2.90
2019-06-07T14:30:55.211Z,3.10
2019-06-07T14:33:26.138Z,3.15
2019-06-07T14:35:53.399Z,2.47
2019-06-07T14:38:23.070Z,2.95
2019-06-07T14:40:51.473Z,3.08
2019-06-07T14:43:19.697Z,2.50
2019-06-07T14:45:47.919Z,2.52
2019-06-07T14:48:16.201Z,3.00
2019-06-07T14:50:44.429Z,3.00
2019-06-07T14:53:12.647Z,2.98
2019-06-07T14:55:40.889Z,2.90
2019-06-07T14:58:09.111Z,2.90
2019-06-07T15:00:41.778Z,3.25
2019-06-07T15:03:10.083Z,2.30
2019-06-07T15:05:40.467Z,2.95
2019-06-07T15:08:08.298Z,2.60
2019-06-07T15:10:36.521Z,3.15
2019-06-07T15:13:04.810Z,2.62
2019-06-07T15:15:33.034Z,3.42
2019-06-07T15:18:01.247Z,3.02
2019-06-07T15:20:30.427Z,3.27
2019-06-07T15:22:59.122Z,3.05
2019-06-07T15:25:27.401Z,3.10
2019-06-07T15:27:55.651Z,2.90
2019-06-07T15:30:24.169Z,2.60
2019-06-07T15:32:52.404Z,2.85
2019-06-07T15:35:20.642Z,3.10
2019-06-07T15:37:50.502Z,2.77
2019-06-07T15:40:18.755Z,2.83
2019-06-07T15:42:52.953Z,2.90
2019-06-07T15:45:17.429Z,3.50
2019-06-07T15:47:45.753Z,2.77
2019-06-07T15:50:14.882Z,3.10
2019-06-07T15:52:43.406Z,3.15
2019-06-07T15:55:12.407Z,2.87
2019-06-07T15:57:42.189Z,2.72
2019-06-07T16:00:15.649Z,3.27
2019-06-07T16:02:43.937Z,3.17
2019-06-07T16:05:12.163Z,3.40
2019-06-07T16:07:40.640Z,3.17
2019-06-07T16:10:08.994Z,3.83
2019-06-07T16:12:38.671Z,3.60
2019-06-07T16:15:07.555Z,4.00
2019-06-07T16:17:37.271Z,2.95
2019-06-07T16:20:07.315Z,3.50
2019-06-07T16:22:35.820Z,3.22
2019-06-07T16:25:05.760Z,3.47
2019-06-07T16:27:34.379Z,3.65
2019-06-07T16:30:09.107Z,3.47
2019-06-07T16:32:34.904Z,3.47
2019-06-07T16:35:05.648Z,3.45
2019-06-07T16:37:33.870Z,3.15
2019-06-07T16:40:02.106Z,3.10
2019-06-07T16:42:30.326Z,3.00
2019-06-07T16:44:58.576Z,3.33
2019-06-07T16:47:26.798Z,3.72
2019-06-07T16:49:55.008Z,2.87
2019-06-07T16:52:23.217Z,3.17
2019-06-07T16:54:51.449Z,3.30
2019-06-07T16:57:19.669Z,2.98
2019-06-07T16:59:50.501Z,3.30
2019-06-07T17:02:17.843Z,2.90
2019-06-07T17:04:46.051Z,3.22
2019-06-07T17:07:14.280Z,3.45
2019-06-07T17:09:42.505Z,3.10
2019-06-07T17:12:10.731Z,3.30
2019-06-07T17:14:38.950Z,3.22
2019-06-07T17:17:07.169Z,3.20
2019-06-07T17:19:35.413Z,3.45
2019-06-07T17:22:03.643Z,3.22
2019-06-07T17:24:31.848Z,3.40
2019-06-07T17:27:00.083Z,3.10
2019-06-07T17:29:28.315Z,3.40
2019-06-07T17:31:56.531Z,3.27
2019-06-07T17:34:24.754Z,3.00
2019-06-07T17:36:53.043Z,3.08
2019-06-07T17:39:21.263Z,3.50
2019-06-07T17:42:00.000Z,3.22
2019-06-07T17:44:19.431Z,3.00
2019-06-07T17:46:47.683Z,3.45
2019-06-07T17:49:15.947Z,3.30
2019-06-07T17:51:44.248Z,3.92
2019-06-07T17:54:12.479Z,3.70
2019-06-07T17:56:42.255Z,3.50
2019-06-07T17:59:10.605Z,3.72
2019-06-07T18:01:41.793Z,3.62
2019-06-07T18:04:08.764Z,3.42
2019-06-07T18:06:36.980Z,3.60
2019-06-07T18:09:07.361Z,3.65
2019-06-07T18:11:35.571Z,3.50
2019-06-07T18:14:10.583Z,3.30
2019-06-07T18:16:34.610Z,3.75
2019-06-07T18:19:02.814Z,3.62
2019-06-07T18:21:31.047Z,3.72
2019-06-07T18:23:59.263Z,3.62
2019-06-07T18:26:27.478Z,3.35
2019-06-07T18:28:55.718Z,3.67
2019-06-07T18:31:24.214Z,3.70
2019-06-07T18:33:52.998Z,3.65
2019-06-07T18:36:21.343Z,3.90
2019-06-07T18:38:49.557Z,4.08
2019-06-07T18:41:17.796Z,3.87
2019-06-07T18:43:47.055Z,4.10
2019-06-07T18:46:15.411Z,3.80
2019-06-07T18:48:43.672Z,4.25
2019-06-07T18:51:12.009Z,3.77
2019-06-07T18:53:40.257Z,4.45
2019-06-07T18:56:08.497Z,4.05
2019-06-07T18:58:36.717Z,3.90
2019-06-07T19:01:05.001Z,4.50
2019-06-07T19:03:33.230Z,3.90
2019-06-07T19:06:01.485Z,3.92
2019-06-07T19:08:29.758Z,3.85
2019-06-07T19:10:58.989Z,3.77
2019-06-07T19:13:27.450Z,5.75
2019-06-07T19:15:55.677Z,4.20
2019-06-07T19:18:23.892Z,4.45
2019-06-07T19:20:52.464Z,4.10
2019-06-07T19:23:20.806Z,5.00
2019-06-07T19:25:50.138Z,4.20
2019-06-07T19:28:18.437Z,3.67
2019-06-07T19:30:46.649Z,3.90
2019-06-07T19:33:14.865Z,3.98
2019-06-07T19:35:43.378Z,5.35
2019-06-07T19:38:11.612Z,7.97
2019-06-07T19:40:39.847Z,6.53
2019-06-07T19:43:08.056Z,5.92
2019-06-07T19:45:37.916Z,4.78
2019-06-07T19:48:08.037Z,5.75
2019-06-07T19:50:36.283Z,5.85
2019-06-07T19:53:04.512Z,4.17
2019-06-07T19:55:32.737Z,6.92
2019-06-07T19:58:01.762Z,4.83
2019-06-07T20:00:30.252Z,4.85
2019-06-07T20:02:58.483Z,5.78
2019-06-07T20:05:26.701Z,5.00
2019-06-07T20:07:56.349Z,5.83
2019-06-07T20:10:24.809Z,4.45
2019-06-07T20:12:54.419Z,4.72
2019-06-07T20:15:29.049Z,5.22
2019-06-07T20:17:53.008Z,4.80
2019-06-07T20:20:23.827Z,4.83
2019-06-07T20:22:51.159Z,4.72
2019-06-07T20:25:19.374Z,4.47
2019-06-07T20:27:47.593Z,5.15
2019-06-07T20:30:15.806Z,4.87
2019-06-07T20:32:45.766Z,4.62
2019-06-07T20:35:13.974Z,4.47
2019-06-07T20:37:42.201Z,4.95
2019-06-07T20:40:23.415Z,4.47
2019-06-07T20:42:40.399Z,4.33
2019-06-07T20:45:08.690Z,4.90
2019-06-07T20:47:36.960Z,4.22
2019-06-07T20:50:08.467Z,3.83
2019-06-07T20:52:37.034Z,4.22
2019-06-07T20:55:06.965Z,3.77
2019-06-07T20:57:35.528Z,3.85
2019-06-07T21:00:12.182Z,3.85
2019-06-07T21:02:35.727Z,3.37
2019-06-07T21:05:05.346Z,3.45
2019-06-07T21:07:33.609Z,3.55
2019-06-07T21:10:01.869Z,3.05
2019-06-07T21:12:30.873Z,3.05
2019-06-07T21:15:02.094Z,3.08
2019-06-07T21:17:29.092Z,2.90
2019-06-07T21:19:57.336Z,2.72
2019-06-07T21:22:25.526Z,3.08
2019-06-07T21:24:53.815Z,2.50
2019-06-07T21:27:22.048Z,2.65
2019-06-07T21:29:50.342Z,2.72
2019-06-07T21:32:18.558Z,2.00
2019-06-07T21:34:46.782Z,1.92
2019-06-07T21:37:15.065Z,1.85
2019-06-07T21:39:43.318Z,1.50
2019-06-07T21:42:12.372Z,2.00
2019-06-07T21:44:40.754Z,1.80
2019-06-07T21:47:08.974Z,1.70
2019-06-07T21:49:37.197Z,1.60
2019-06-07T21:52:06.488Z,1.62
2019-06-07T21:54:34.915Z,1.80
2019-06-07T21:57:03.146Z,1.40
2019-06-07T21:59:31.361Z,2.02
2019-06-07T22:01:59.583Z,1.60
2019-06-07T22:04:27.809Z,1.10
2019-06-07T22:06:56.034Z,1.77
2019-06-07T22:09:24.262Z,1.10
2019-06-07T22:11:52.477Z,1.65
2019-06-07T22:14:20.688Z,0.90
2019-06-07T22:16:48.924Z,1.00
2019-06-07T22:19:17.137Z,0.90
2019-06-07T22:22:01.499Z,1.40
2019-06-07T22:24:15.291Z,0.90
2019-06-07T22:26:43.516Z,1.10
2019-06-07T22:29:12.422Z,0.82
2019-06-07T22:31:40.732Z,0.82
2019-06-07T22:34:08.958Z,1.00
2019-06-07T22:36:37.166Z,0.78
2019-06-07T22:39:07.531Z,1.20
2019-06-07T22:41:36.068Z,1.25
2019-06-07T22:44:04.274Z,0.72
2019-06-07T22:46:37.497Z,1.02
2019-06-07T22:49:02.730Z,0.72
2019-06-07T22:51:30.942Z,0.68
2019-06-07T22:53:59.158Z,0.90
2019-06-07T22:56:31.961Z,1.05
2019-06-07T22:59:00.169Z,1.10
2019-06-07T23:01:28.385Z,1.17
2019-06-07T23:03:56.605Z,0.90
2019-06-07T23:06:24.838Z,1.02
2019-06-07T23:08:53.053Z,0.90
2019-06-07T23:11:21.282Z,0.60
2019-06-07T23:13:49.513Z,0.78
2019-06-07T23:16:17.866Z,0.93
2019-06-07T23:18:46.135Z,0.93
2019-06-07T23:21:14.386Z,0.70
2019-06-07T23:23:42.600Z,0.68
2019-06-07T23:26:12.098Z,0.80
2019-06-07T23:28:40.543Z,0.90
2019-06-07T23:31:08.777Z,1.20
2019-06-07T23:33:36.993Z,0.88
2019-06-07T23:36:05.232Z,0.98
2019-06-07T23:38:33.446Z,1.10
2019-06-07T23:41:01.665Z,0.93
2019-06-07T23:43:29.903Z,0.80
2019-06-07T23:45:58.115Z,0.90
2019-06-07T23:48:26.345Z,0.70
2019-06-07T23:50:54.560Z,0.78
2019-06-07T23:53:22.780Z,0.90
2019-06-07T23:55:50.992Z,0.82
2019-06-07T23:58:20.592Z,0.85
